createdAt,value
2019-05-15T00:00:19.945Z,0.03
2019-05-15T00:02:48.594Z,1.02
2019-05-15T00:05:18.852Z,0.00
2019-05-15T00:07:48.394Z,0.00
2019-05-15T00:10:18.089Z,0.00
2019-05-15T00:12:48.623Z,0.03
2019-05-15T00:15:18.255Z,0.00
2019-05-15T00:17:48.511Z,0.37
2019-05-15T00:20:20.094Z,0.00
2019-05-15T00:22:48.449Z,0.00
2019-05-15T00:25:18.830Z,0.00
2019-05-15T00:27:49.136Z,1.17
2019-05-15T00:30:18.465Z,0.00
2019-05-15T00:32:48.677Z,0.28
2019-05-15T00:35:18.401Z,0.00
2019-05-15T00:37:49.328Z,0.42
2019-05-15T00:40:18.404Z,0.53
2019-05-15T00:42:48.751Z,0.00
2019-05-15T00:45:19.390Z,0.00
2019-05-15T00:47:48.817Z,0.00
2019-05-15T00:50:18.489Z,0.00
2019-05-15T00:52:48.474Z,0.00
2019-05-15T00:55:19.107Z,0.00
2019-05-15T00:57:48.544Z,0.30
2019-05-15T01:00:28.169Z,0.00
2019-05-15T01:02:57.845Z,0.70
2019-05-15T01:05:28.006Z,0.00
2019-05-15T01:07:58.676Z,0.00
2019-05-15T01:10:28.692Z,0.00
2019-05-15T01:12:58.373Z,0.00
2019-05-15T01:15:29.007Z,0.00
2019-05-15T01:17:58.296Z,0.00
2019-05-15T01:20:28.556Z,0.23
2019-05-15T01:22:59.197Z,0.00
2019-05-15T01:25:28.079Z,0.00
2019-05-15T01:27:58.318Z,0.42
2019-05-15T01:30:28.657Z,0.00
2019-05-15T01:32:59.160Z,0.00
2019-05-15T01:35:28.717Z,0.00
2019-05-15T01:37:58.560Z,0.03
2019-05-15T01:40:28.912Z,0.00
2019-05-15T01:42:58.265Z,0.00
2019-05-15T01:45:28.635Z,0.00
2019-05-15T01:47:58.613Z,0.00
2019-05-15T01:50:29.211Z,0.20
2019-05-15T01:52:58.575Z,0.25
2019-05-15T01:55:28.428Z,0.10
2019-05-15T01:57:58.174Z,0.10
2019-05-15T02:00:28.265Z,0.10
2019-05-15T02:02:58.743Z,0.10
2019-05-15T02:05:28.244Z,0.10
2019-05-15T02:07:58.554Z,0.10
2019-05-15T02:10:29.191Z,0.10
2019-05-15T02:12:58.774Z,0.10
2019-05-15T02:15:28.583Z,0.20
2019-05-15T02:17:58.773Z,0.10
2019-05-15T02:20:29.116Z,0.20
2019-05-15T02:22:59.061Z,0.20
2019-05-15T02:25:28.118Z,0.20
2019-05-15T02:27:58.695Z,0.10
2019-05-15T02:30:30.097Z,0.10
2019-05-15T02:32:59.004Z,0.10
2019-05-15T02:35:29.581Z,0.10
2019-05-15T02:37:59.832Z,0.10
2019-05-15T02:40:29.512Z,0.30
2019-05-15T02:42:59.202Z,0.72
2019-05-15T02:45:30.080Z,0.10
2019-05-15T02:47:59.712Z,0.20
2019-05-15T02:50:29.276Z,0.10
2019-05-15T02:53:00.549Z,1.17
2019-05-15T02:55:29.705Z,0.10
2019-05-15T02:57:59.153Z,0.10
2019-05-15T03:00:37.933Z,0.10
2019-05-15T03:03:00.253Z,0.10
2019-05-15T03:05:29.504Z,0.30
2019-05-15T03:07:59.412Z,0.20
2019-05-15T03:10:29.627Z,0.20
2019-05-15T03:13:00.137Z,0.47
2019-05-15T03:15:29.219Z,0.20
2019-05-15T03:18:00.349Z,0.30
2019-05-15T03:20:29.822Z,0.20
2019-05-15T03:22:59.694Z,0.30
2019-05-15T03:25:29.707Z,0.35
2019-05-15T03:27:59.571Z,0.20
2019-05-15T03:30:32.159Z,0.20
2019-05-15T03:33:07.798Z,0.23
2019-05-15T03:35:32.817Z,0.30
2019-05-15T03:38:00.003Z,0.30
2019-05-15T03:40:29.969Z,0.20
2019-05-15T03:42:59.457Z,0.30
2019-05-15T03:45:29.724Z,0.98
2019-05-15T03:47:59.580Z,1.45
2019-05-15T03:50:29.111Z,1.02
2019-05-15T03:52:58.841Z,1.00
2019-05-15T03:55:29.576Z,0.70
2019-05-15T03:57:59.212Z,0.40
2019-05-15T04:00:30.168Z,0.42
2019-05-15T04:02:59.200Z,0.30
2019-05-15T04:05:29.313Z,1.37
2019-05-15T04:07:59.954Z,0.50
2019-05-15T04:10:29.061Z,0.30
2019-05-15T04:13:00.035Z,0.30
2019-05-15T04:15:30.094Z,0.65
2019-05-15T04:18:00.415Z,0.40
2019-05-15T04:20:29.703Z,0.70
2019-05-15T04:23:00.323Z,0.60
2019-05-15T04:25:30.073Z,0.50
2019-05-15T04:28:00.247Z,0.68
2019-05-15T04:30:30.758Z,0.42
2019-05-15T04:32:59.648Z,1.10
2019-05-15T04:35:29.061Z,1.75
2019-05-15T04:37:59.810Z,0.40
2019-05-15T04:40:29.920Z,0.33
2019-05-15T04:42:59.264Z,0.65
2019-05-15T04:45:34.480Z,0.82
2019-05-15T04:47:58.901Z,0.50
2019-05-15T04:50:28.859Z,0.90
2019-05-15T04:52:59.322Z,2.10
2019-05-15T04:55:29.003Z,2.17
2019-05-15T04:57:59.120Z,2.65
2019-05-15T05:00:49.630Z,1.35
2019-05-15T05:03:19.840Z,1.35
2019-05-15T05:05:49.898Z,2.47
2019-05-15T05:08:20.118Z,0.50
2019-05-15T05:10:49.376Z,4.35
2019-05-15T05:13:19.775Z,0.50
2019-05-15T05:15:50.114Z,0.70
2019-05-15T05:18:19.228Z,4.62
2019-05-15T05:20:48.729Z,1.00
2019-05-15T05:23:19.240Z,1.52
2019-05-15T05:25:49.145Z,2.77
2019-05-15T05:28:18.453Z,3.12
2019-05-15T05:30:48.185Z,11.85
2019-05-15T05:33:18.132Z,0.70
2019-05-15T05:35:48.640Z,9.90
2019-05-15T05:38:19.176Z,4.95
2019-05-15T05:40:49.459Z,1.30
2019-05-15T05:43:18.865Z,8.78
2019-05-15T05:45:49.258Z,4.87
2019-05-15T05:48:18.781Z,8.93
2019-05-15T05:50:49.703Z,4.08
2019-05-15T05:53:18.065Z,5.25
2019-05-15T05:55:48.720Z,14.18
2019-05-15T05:58:19.647Z,1.02
2019-05-15T06:00:49.100Z,4.05
2019-05-15T06:03:19.613Z,0.98
2019-05-15T06:05:49.594Z,10.28
2019-05-15T06:08:19.549Z,11.15
2019-05-15T06:10:49.523Z,2.00
2019-05-15T06:13:18.879Z,2.25
2019-05-15T06:15:48.711Z,1.37
2019-05-15T06:18:19.503Z,0.60
2019-05-15T06:20:49.367Z,2.62
2019-05-15T06:23:23.891Z,1.12
2019-05-15T06:25:49.325Z,2.05
2019-05-15T06:28:19.658Z,1.67
2019-05-15T06:30:48.879Z,6.95
2019-05-15T06:33:18.781Z,10.00
2019-05-15T06:35:48.856Z,4.12
2019-05-15T06:38:19.655Z,4.90
2019-05-15T06:40:49.485Z,5.83
2019-05-15T06:43:19.476Z,2.70
2019-05-15T06:45:48.912Z,3.12
2019-05-15T06:48:18.454Z,5.65
2019-05-15T06:50:49.142Z,4.90
2019-05-15T06:53:19.341Z,1.55
2019-05-15T06:55:48.762Z,11.10
2019-05-15T06:58:19.153Z,2.77
2019-05-15T07:00:48.993Z,5.55
2019-05-15T07:03:24.835Z,3.17
2019-05-15T07:05:50.736Z,2.37
2019-05-15T07:08:18.727Z,4.53
2019-05-15T07:10:48.765Z,2.65
2019-05-15T07:13:18.292Z,1.60
2019-05-15T07:15:49.593Z,0.40
2019-05-15T07:18:19.893Z,3.17
2019-05-15T07:20:49.102Z,5.50
2019-05-15T07:23:18.870Z,1.22
2019-05-15T07:25:49.785Z,2.77
2019-05-15T07:28:18.965Z,4.78
2019-05-15T07:30:49.563Z,2.00
2019-05-15T07:33:28.098Z,5.40
2019-05-15T07:35:49.221Z,4.42
2019-05-15T07:38:18.525Z,10.40
2019-05-15T07:40:55.470Z,1.65
2019-05-15T07:43:18.287Z,8.93
2019-05-15T07:45:54.230Z,9.18
2019-05-15T07:48:18.893Z,5.05
2019-05-15T07:50:49.649Z,7.53
2019-05-15T07:53:19.698Z,6.40
2019-05-15T07:55:50.019Z,1.62
2019-05-15T07:58:21.548Z,8.35
2019-05-15T08:00:49.566Z,4.17
2019-05-15T08:03:18.578Z,0.80
2019-05-15T08:05:58.775Z,1.82
2019-05-15T08:08:18.513Z,6.25
2019-05-15T08:10:48.878Z,1.65
2019-05-15T08:13:18.673Z,1.70
2019-05-15T08:15:48.831Z,4.47
2019-05-15T08:18:18.358Z,1.67
2019-05-15T08:20:49.034Z,1.95
2019-05-15T08:23:19.205Z,2.47
2019-05-15T08:25:48.750Z,4.08
2019-05-15T08:28:18.945Z,3.33
2019-05-15T08:30:49.352Z,0.98
2019-05-15T08:33:18.562Z,5.60
2019-05-15T08:35:51.192Z,4.90
2019-05-15T08:38:18.419Z,2.22
2019-05-15T08:40:48.912Z,2.30
2019-05-15T08:43:18.320Z,2.17
2019-05-15T08:45:49.724Z,0.80
2019-05-15T08:48:18.445Z,3.80
2019-05-15T08:50:48.787Z,3.08
2019-05-15T08:53:19.457Z,7.45
2019-05-15T08:55:48.636Z,4.17
2019-05-15T08:58:20.354Z,4.50
2019-05-15T09:00:52.206Z,2.15
2019-05-15T09:03:18.496Z,3.08
2019-05-15T09:05:48.527Z,2.27
2019-05-15T09:08:19.468Z,5.72
2019-05-15T09:10:49.843Z,1.75
2019-05-15T09:13:18.965Z,3.98
2019-05-15T09:15:48.590Z,2.33
2019-05-15T09:18:19.902Z,3.35
2019-05-15T09:20:49.244Z,1.65
2019-05-15T09:23:19.417Z,1.40
2019-05-15T09:25:49.483Z,8.90
2019-05-15T09:28:19.321Z,3.33
2019-05-15T09:30:48.591Z,2.45
2019-05-15T09:33:19.858Z,2.20
2019-05-15T09:35:48.966Z,6.33
2019-05-15T09:38:18.643Z,1.72
2019-05-15T09:40:50.476Z,7.22
2019-05-15T09:43:18.336Z,3.00
2019-05-15T09:45:49.315Z,2.47
2019-05-15T09:48:19.740Z,2.45
2019-05-15T09:50:49.247Z,1.75
2019-05-15T09:53:18.938Z,1.65
2019-05-15T09:55:49.306Z,2.55
2019-05-15T09:58:20.414Z,1.17
2019-05-15T10:00:51.958Z,1.40
2019-05-15T10:03:20.399Z,2.52
2019-05-15T10:05:49.199Z,1.20
2019-05-15T10:08:20.921Z,0.95
2019-05-15T10:10:48.884Z,1.80
2019-05-15T10:13:18.571Z,2.40
2019-05-15T10:15:50.912Z,1.40
2019-05-15T10:18:19.125Z,2.80
2019-05-15T10:20:48.333Z,1.35
2019-05-15T10:23:19.674Z,4.37
2019-05-15T10:25:48.472Z,2.10
2019-05-15T10:28:19.290Z,1.90
2019-05-15T10:30:49.611Z,8.90
2019-05-15T10:33:19.682Z,6.47
2019-05-15T10:35:49.273Z,3.50
2019-05-15T10:38:19.221Z,4.53
2019-05-15T10:41:00.133Z,3.92
2019-05-15T10:43:20.723Z,4.60
2019-05-15T10:45:50.259Z,3.17
2019-05-15T10:48:19.256Z,3.60
2019-05-15T10:50:48.026Z,2.02
2019-05-15T10:53:18.706Z,3.90
2019-05-15T10:55:49.567Z,2.52
2019-05-15T10:58:21.780Z,4.40
2019-05-15T11:00:49.488Z,4.28
2019-05-15T11:03:19.914Z,2.98
2019-05-15T11:05:49.260Z,2.35
2019-05-15T11:08:18.928Z,22.25
2019-05-15T11:10:49.406Z,10.05
2019-05-15T11:13:18.767Z,9.23
2019-05-15T11:15:49.171Z,13.20
2019-05-15T11:18:17.999Z,9.28
2019-05-15T11:20:48.618Z,3.80
2019-05-15T11:23:19.573Z,8.40
2019-05-15T11:25:48.777Z,4.55
2019-05-15T11:28:17.703Z,3.08
2019-05-15T11:30:49.085Z,11.88
2019-05-15T11:33:18.939Z,2.75
2019-05-15T11:35:57.931Z,5.53
2019-05-15T11:38:19.426Z,6.92
2019-05-15T11:40:47.731Z,12.07
2019-05-15T11:43:16.230Z,11.43
2019-05-15T11:45:44.860Z,9.80
2019-05-15T11:48:13.569Z,7.42
2019-05-15T11:50:42.199Z,2.30
2019-05-15T11:53:10.693Z,7.40
2019-05-15T11:55:39.331Z,2.92
2019-05-15T11:58:09.256Z,2.42
2019-05-15T12:00:38.600Z,6.12
2019-05-15T12:03:09.039Z,4.10
2019-05-15T12:05:38.617Z,8.48
2019-05-15T12:08:09.047Z,4.85
2019-05-15T12:10:38.901Z,3.02
2019-05-15T12:13:09.790Z,2.55
2019-05-15T12:15:38.756Z,6.12
2019-05-15T12:18:08.915Z,6.62
2019-05-15T12:20:39.037Z,4.03
2019-05-15T12:23:09.053Z,4.03
2019-05-15T12:28:09.679Z,8.53
2019-05-15T12:30:40.244Z,6.20
2019-05-15T12:33:09.787Z,8.35
2019-05-15T12:35:39.690Z,6.62
2019-05-15T12:38:10.314Z,5.28
2019-05-15T13:00:43.380Z,27.90
2019-05-15T13:03:12.500Z,11.63
2019-05-15T13:05:41.094Z,12.75
2019-05-15T13:08:09.795Z,11.20
2019-05-15T13:10:38.876Z,12.58
2019-05-15T13:13:09.525Z,12.35
2019-05-15T13:15:40.972Z,13.83
2019-05-15T13:18:13.847Z,11.38
2019-05-15T13:20:38.970Z,13.03
2019-05-15T13:23:08.926Z,10.38
2019-05-15T13:25:39.333Z,15.35
2019-05-15T13:28:09.024Z,14.87
2019-05-15T13:30:41.388Z,19.52
2019-05-15T13:33:10.141Z,12.98
2019-05-15T13:35:38.666Z,14.03
2019-05-15T13:38:09.745Z,14.20
2019-05-15T13:40:41.784Z,10.40
2019-05-15T13:43:08.528Z,13.43
2019-05-15T13:45:38.634Z,14.87
2019-05-15T13:48:08.997Z,16.15
2019-05-15T13:50:40.296Z,15.60
2019-05-15T13:53:10.423Z,19.30
2019-05-15T13:55:42.245Z,18.40
2019-05-15T13:58:09.350Z,19.95
2019-05-15T14:00:38.870Z,15.40
2019-05-15T14:03:09.150Z,14.98
2019-05-15T14:05:38.411Z,15.60
2019-05-15T14:08:07.195Z,17.55
2019-05-15T14:10:38.284Z,13.03
2019-05-15T14:13:06.361Z,17.80
2019-05-15T14:15:35.030Z,16.48
2019-05-15T14:18:03.742Z,14.65
2019-05-15T14:20:32.434Z,20.35
2019-05-15T14:23:01.003Z,16.40
2019-05-15T14:25:29.693Z,19.32
2019-05-15T14:27:59.364Z,14.38
2019-05-15T14:30:29.206Z,15.10
2019-05-15T14:32:59.811Z,22.05
2019-05-15T14:35:28.810Z,26.73
2019-05-15T14:38:06.012Z,19.82
2019-05-15T14:40:28.061Z,23.42
2019-05-15T14:42:59.428Z,19.02
2019-05-15T14:45:28.031Z,19.62
2019-05-15T14:47:58.210Z,13.68
2019-05-15T14:50:28.393Z,9.55
2019-05-15T14:52:58.570Z,14.83
2019-05-15T14:55:33.599Z,17.23
2019-05-15T14:57:59.070Z,17.37
2019-05-15T15:00:33.355Z,12.95
2019-05-15T15:02:59.052Z,21.93
2019-05-15T15:05:28.004Z,17.23
2019-05-15T15:07:58.536Z,15.15
2019-05-15T15:10:29.119Z,16.15
2019-05-15T15:12:58.570Z,13.50
2019-05-15T15:15:28.671Z,12.37
2019-05-15T15:17:58.310Z,14.45
2019-05-15T15:20:28.578Z,12.20
2019-05-15T15:22:58.817Z,12.03
2019-05-15T15:25:27.603Z,9.50
2019-05-15T15:27:58.470Z,7.60
2019-05-15T15:30:26.305Z,9.93
2019-05-15T15:32:54.983Z,6.00
2019-05-15T15:35:23.613Z,6.33
2019-05-15T15:37:52.110Z,7.10
2019-05-15T15:40:20.910Z,7.17
2019-05-15T15:42:49.547Z,4.80
2019-05-15T15:45:19.335Z,6.10
2019-05-15T15:47:48.191Z,13.32
2019-05-15T15:50:18.304Z,5.28
2019-05-15T15:52:48.850Z,4.58
2019-05-15T15:55:18.502Z,10.58
2019-05-15T15:57:48.732Z,6.67
2019-05-15T16:00:18.402Z,4.05
2019-05-15T16:02:48.367Z,4.55
2019-05-15T16:05:19.106Z,4.80
2019-05-15T16:07:48.516Z,6.28
2019-05-15T16:10:18.990Z,6.70
2019-05-15T16:12:49.197Z,6.20
2019-05-15T16:15:18.312Z,6.42
2019-05-15T16:17:48.814Z,8.60
2019-05-15T16:20:18.883Z,7.90
2019-05-15T16:22:48.610Z,7.40
2019-05-15T16:25:18.452Z,8.40
2019-05-15T16:27:48.821Z,7.67
2019-05-15T16:30:18.753Z,7.50
2019-05-15T16:32:47.581Z,8.75
2019-05-15T16:35:18.497Z,9.83
2019-05-15T16:37:49.239Z,9.30
2019-05-15T16:40:18.343Z,7.35
2019-05-15T16:42:48.853Z,9.68
2019-05-15T16:45:17.813Z,8.48
2019-05-15T16:47:48.097Z,9.63
2019-05-15T16:50:18.058Z,10.20
2019-05-15T16:52:49.095Z,11.68
2019-05-15T16:55:17.377Z,13.65
2019-05-15T16:57:47.928Z,15.05
2019-05-15T17:00:18.659Z,18.77
2019-05-15T17:02:48.256Z,19.85
2019-05-15T17:05:18.570Z,12.15
2019-05-15T17:07:48.879Z,9.05
2019-05-15T17:10:17.781Z,13.38
2019-05-15T17:12:49.032Z,14.58
2019-05-15T17:15:17.247Z,14.15
2019-05-15T17:17:45.830Z,2.70
2019-05-15T17:20:14.869Z,7.05
2019-05-15T17:22:43.479Z,9.88
2019-05-15T17:25:12.106Z,6.03
2019-05-15T17:27:40.751Z,3.77
2019-05-15T17:30:09.928Z,4.00
2019-05-15T17:32:39.525Z,5.42
2019-05-15T17:35:10.271Z,3.58
2019-05-15T17:37:38.956Z,5.37
2019-05-15T17:40:08.870Z,5.60
2019-05-15T17:42:38.879Z,5.70
2019-05-15T17:45:09.400Z,3.22
2019-05-15T17:47:39.164Z,4.50
2019-05-15T17:50:09.146Z,2.83
2019-05-15T17:52:38.724Z,3.25
2019-05-15T17:55:08.563Z,4.05
2019-05-15T17:57:38.715Z,3.35
2019-05-15T18:00:12.703Z,3.22
2019-05-15T18:02:41.387Z,3.10
2019-05-15T18:05:10.301Z,2.83
2019-05-15T18:07:39.283Z,8.00
2019-05-15T18:10:08.760Z,2.77
2019-05-15T18:12:38.880Z,2.75
2019-05-15T18:15:09.386Z,2.52
2019-05-15T18:17:39.125Z,3.92
2019-05-15T18:20:09.795Z,5.90
2019-05-15T18:22:39.155Z,3.98
2019-05-15T18:25:09.124Z,4.40
2019-05-15T18:27:38.828Z,4.22
2019-05-15T18:30:09.443Z,5.45
2019-05-15T18:32:39.187Z,5.47
2019-05-15T18:35:08.512Z,5.85
2019-05-15T18:37:39.417Z,5.85
2019-05-15T18:40:09.983Z,6.33
2019-05-15T18:42:39.323Z,4.65
2019-05-15T18:45:10.190Z,4.50
2019-05-15T18:47:39.282Z,6.03
2019-05-15T18:50:13.000Z,5.00
2019-05-15T18:52:40.124Z,5.03
2019-05-15T18:55:09.352Z,6.90
2019-05-15T18:57:38.630Z,7.85
2019-05-15T19:00:09.028Z,8.55
2019-05-15T19:02:39.303Z,8.38
2019-05-15T19:05:08.439Z,9.95
2019-05-15T19:07:38.406Z,9.13
2019-05-15T19:10:09.354Z,9.28
2019-05-15T19:12:38.084Z,10.05
2019-05-15T19:15:09.925Z,9.78
2019-05-15T19:17:39.108Z,10.32
2019-05-15T19:20:09.290Z,10.25
2019-05-15T19:22:40.742Z,9.95
2019-05-15T19:25:09.165Z,10.60
2019-05-15T19:27:39.021Z,10.85
2019-05-15T19:30:09.133Z,11.83
2019-05-15T19:32:38.750Z,11.43
2019-05-15T19:35:08.301Z,12.20
2019-05-15T19:37:38.299Z,11.10
2019-05-15T19:40:07.958Z,10.30
2019-05-15T19:42:38.427Z,11.35
2019-05-15T19:45:09.327Z,14.55
2019-05-15T19:47:38.803Z,15.63
2019-05-15T19:50:08.757Z,13.68
2019-05-15T19:52:37.381Z,10.60
2019-05-15T19:55:08.809Z,9.48
2019-05-15T19:57:38.965Z,9.70
2019-05-15T20:00:09.209Z,12.80
2019-05-15T20:02:39.311Z,7.45
2019-05-15T20:05:09.318Z,28.55
2019-05-15T20:07:39.266Z,17.57
2019-05-15T20:10:09.941Z,15.83
2019-05-15T20:12:39.271Z,16.50
2019-05-15T20:15:10.238Z,14.70
2019-05-15T20:17:38.987Z,13.68
2019-05-15T20:20:09.185Z,15.48
2019-05-15T20:22:40.170Z,14.93
2019-05-15T20:25:08.733Z,16.42
2019-05-15T20:27:39.087Z,17.02
2019-05-15T20:30:09.516Z,19.80
2019-05-15T20:32:38.856Z,19.67
2019-05-15T20:35:08.654Z,14.80
2019-05-15T20:37:39.175Z,14.73
2019-05-15T20:40:09.707Z,17.23
2019-05-15T20:42:38.696Z,19.70
2019-05-15T20:47:44.477Z,17.95
2019-05-15T20:50:15.544Z,16.05
2019-05-15T20:52:44.230Z,19.02
2019-05-15T20:55:21.355Z,27.75
2019-05-15T20:57:50.559Z,30.88
2019-05-15T21:00:20.274Z,25.52
2019-05-15T21:02:48.932Z,25.88
2019-05-15T21:05:18.585Z,24.37
2019-05-15T21:07:48.692Z,27.13
2019-05-15T21:10:21.190Z,29.75
2019-05-15T21:12:48.741Z,31.70
2019-05-15T21:15:21.138Z,30.27
2019-05-15T21:17:57.860Z,36.33
2019-05-15T21:20:18.482Z,37.70
2019-05-15T21:22:49.281Z,31.35
2019-05-15T21:25:19.662Z,29.02
2019-05-15T21:27:48.774Z,30.32
2019-05-15T21:30:19.013Z,39.05
2019-05-15T21:32:49.229Z,34.00
2019-05-15T21:35:18.461Z,26.55
2019-05-15T21:37:48.898Z,30.62
2019-05-15T21:40:18.648Z,25.25
2019-05-15T21:42:49.120Z,27.60
2019-05-15T21:45:19.954Z,28.35
2019-05-15T21:47:48.592Z,28.38
2019-05-15T21:50:19.393Z,24.20
2019-05-15T21:52:49.506Z,27.37
2019-05-15T21:55:19.374Z,28.70
2019-05-15T21:57:48.365Z,22.87
2019-05-15T22:00:33.613Z,25.75
2019-05-15T22:03:04.391Z,28.47
2019-05-15T22:05:34.319Z,47.08
2019-05-15T22:08:03.085Z,47.60
2019-05-15T22:10:31.925Z,33.95
2019-05-15T22:13:00.694Z,35.80
2019-05-15T22:15:30.554Z,24.72
2019-05-15T22:17:59.191Z,29.95
2019-05-15T22:20:30.371Z,31.12
2019-05-15T22:22:59.523Z,24.72
2019-05-15T22:25:28.419Z,25.52
2019-05-15T22:27:57.831Z,21.10
2019-05-15T22:30:29.876Z,20.45
2019-05-15T22:32:58.730Z,18.73
2019-05-15T22:35:29.561Z,29.65
2019-05-15T22:37:58.558Z,30.20
2019-05-15T22:40:28.886Z,26.07
2019-05-15T22:42:59.212Z,24.40
2019-05-15T22:45:28.586Z,19.15
2019-05-15T22:47:58.514Z,18.02
2019-05-15T22:50:28.150Z,17.40
2019-05-15T22:52:58.656Z,20.55
2019-05-15T22:55:28.899Z,20.23
2019-05-15T22:57:59.414Z,21.12
2019-05-15T23:00:29.259Z,21.82
2019-05-15T23:02:58.192Z,19.90
2019-05-15T23:05:29.384Z,21.70
2019-05-15T23:07:58.926Z,20.10
2019-05-15T23:10:29.327Z,19.52
2019-05-15T23:12:58.359Z,21.77
2019-05-15T23:15:28.133Z,19.25
2019-05-15T23:17:58.270Z,21.20
2019-05-15T23:20:28.626Z,22.25
2019-05-15T23:22:58.512Z,18.25
2019-05-15T23:25:38.677Z,18.95
2019-05-15T23:28:08.566Z,22.17
2019-05-15T23:30:37.376Z,22.13
2019-05-15T23:33:08.389Z,20.10
2019-05-15T23:35:38.933Z,21.70
2019-05-15T23:38:08.457Z,22.50
2019-05-15T23:40:37.160Z,23.10
2019-05-15T23:43:08.707Z,23.70
2019-05-15T23:45:38.816Z,22.35
2019-05-15T23:48:06.828Z,23.38
2019-05-15T23:50:38.095Z,22.52
2019-05-15T23:53:05.735Z,21.12
2019-05-15T23:55:34.368Z,23.38
2019-05-15T23:58:02.903Z,22.73
